createdAt,value
2023-02-18T00:01:30.749Z,3.17
2023-02-18T00:03:59.949Z,3.15
2023-02-18T00:06:30.026Z,3.15
2023-02-18T00:09:00.428Z,3.25
2023-02-18T00:11:28.149Z,3.17
2023-02-18T00:13:58.789Z,2.83
2023-02-18T00:16:27.262Z,3.28
2023-02-18T00:19:02.974Z,3.15
2023-02-18T00:21:30.823Z,3.42
2023-02-18T00:23:58.016Z,3.50
2023-02-18T00:26:25.282Z,3.42
2023-02-18T00:28:53.398Z,2.90
2023-02-18T00:31:29.805Z,3.30
2023-02-18T00:33:58.742Z,3.05
2023-02-18T00:36:26.671Z,3.05
2023-02-18T00:38:57.949Z,3.47
2023-02-18T00:41:26.715Z,2.72
2023-02-18T00:43:54.572Z,2.90
2023-02-18T00:46:23.381Z,3.15
2023-02-18T00:48:50.409Z,2.70
2023-02-18T00:51:17.572Z,2.63
2023-02-18T00:53:44.886Z,2.92
2023-02-18T00:56:12.179Z,2.90
2023-02-18T00:58:39.817Z,2.90
2023-02-18T01:01:09.067Z,3.58
2023-02-18T01:03:37.804Z,3.53
2023-02-18T01:06:06.599Z,3.30
2023-02-18T01:08:34.861Z,3.25
2023-02-18T01:11:02.684Z,3.30
2023-02-18T01:13:29.880Z,3.67
2023-02-18T01:15:57.382Z,3.05
2023-02-18T01:18:26.573Z,3.17
2023-02-18T01:20:53.747Z,3.28
2023-02-18T01:23:21.940Z,3.30
2023-02-18T01:25:49.668Z,3.50
2023-02-18T01:28:17.173Z,3.88
2023-02-18T01:30:44.822Z,3.80
2023-02-18T01:33:12.422Z,3.92
2023-02-18T01:35:41.199Z,4.00
2023-02-18T01:38:09.514Z,2.97
2023-02-18T01:40:44.035Z,3.00
2023-02-18T01:43:13.459Z,3.28
2023-02-18T01:46:25.564Z,3.63
2023-02-18T01:48:59.686Z,3.25
2023-02-18T01:51:32.466Z,3.20
2023-02-18T01:54:06.534Z,3.20
2023-02-18T01:56:55.346Z,3.85
2023-02-18T01:59:28.372Z,3.25
2023-02-18T02:01:56.678Z,3.60
2023-02-18T02:04:23.920Z,3.75
2023-02-18T02:06:51.081Z,5.07
2023-02-18T02:09:20.606Z,4.10
2023-02-18T02:12:14.710Z,3.55
2023-02-18T02:15:08.874Z,3.60
2023-02-18T02:17:54.619Z,3.63
2023-02-18T02:20:46.576Z,4.50
2023-02-18T02:23:38.292Z,4.97
2023-02-18T02:26:14.468Z,4.63
2023-02-18T02:29:17.766Z,4.07
2023-02-18T02:32:12.543Z,3.28
2023-02-18T02:34:55.752Z,2.70
2023-02-18T02:37:37.825Z,2.90
2023-02-18T02:40:04.865Z,2.50
2023-02-18T02:42:48.263Z,2.80
2023-02-18T02:45:33.265Z,3.63
2023-02-18T02:48:05.829Z,3.42
2023-02-18T02:50:52.708Z,3.88
2023-02-18T02:53:27.522Z,3.20
2023-02-18T02:55:56.453Z,3.70
2023-02-18T02:58:23.893Z,3.38
2023-02-18T03:01:11.802Z,4.00
2023-02-18T03:03:53.813Z,5.07
2023-02-18T03:06:59.349Z,5.20
2023-02-18T03:09:47.525Z,5.68
2023-02-18T03:12:33.029Z,4.97
2023-02-18T03:15:19.682Z,4.70
2023-02-18T03:18:01.796Z,5.07
2023-02-18T03:20:35.611Z,5.25
2023-02-18T03:23:11.821Z,7.85
2023-02-18T03:25:40.554Z,6.93
2023-02-18T03:28:12.544Z,6.88
2023-02-18T03:30:44.068Z,6.63
2023-02-18T03:33:17.940Z,6.40
2023-02-18T03:38:30.413Z,5.35
2023-02-18T03:40:58.308Z,6.00
2023-02-18T03:43:25.394Z,5.00
2023-02-18T03:45:52.917Z,5.07
2023-02-18T03:48:20.163Z,5.60
2023-02-18T03:50:47.233Z,4.70
2023-02-18T03:53:14.318Z,4.50
2023-02-18T03:55:41.896Z,4.20
2023-02-18T03:58:08.982Z,5.00
2023-02-18T04:00:36.066Z,4.47
2023-02-18T04:03:03.189Z,4.05
2023-02-18T04:05:30.375Z,3.15
2023-02-18T04:07:57.490Z,3.10
2023-02-18T04:10:24.705Z,2.67
2023-02-18T04:12:51.767Z,3.75
2023-02-18T04:15:18.945Z,3.40
2023-02-18T04:17:46.021Z,3.00
2023-02-18T04:20:13.285Z,3.67
2023-02-18T04:22:40.428Z,3.30
2023-02-18T04:25:08.061Z,3.40
2023-02-18T04:27:35.235Z,3.10
2023-02-18T04:30:03.161Z,3.42
2023-02-18T04:32:30.237Z,2.95
2023-02-18T04:34:57.250Z,3.13
2023-02-18T04:37:24.419Z,3.30
2023-02-18T04:39:51.652Z,3.17
2023-02-18T04:42:18.764Z,4.10
2023-02-18T04:44:47.495Z,3.45
2023-02-18T04:47:14.914Z,3.45
2023-02-18T04:49:41.950Z,3.55
2023-02-18T04:52:09.060Z,4.05
2023-02-18T04:54:36.138Z,4.65
2023-02-18T04:57:03.270Z,3.72
2023-02-18T04:59:30.508Z,3.78
2023-02-18T05:01:57.690Z,3.85
2023-02-18T05:04:24.937Z,4.40
2023-02-18T05:06:52.219Z,3.90
2023-02-18T05:09:19.300Z,3.85
2023-02-18T05:11:47.938Z,3.30
2023-02-18T05:14:16.252Z,3.60
2023-02-18T05:16:43.408Z,3.45
2023-02-18T05:19:17.358Z,3.60
2023-02-18T05:24:11.698Z,3.95
2023-02-18T05:26:38.795Z,3.55
2023-02-18T05:29:06.260Z,3.70
2023-02-18T05:31:33.712Z,3.60
2023-02-18T05:34:00.987Z,3.40
2023-02-18T05:36:28.087Z,4.35
2023-02-18T05:38:55.134Z,3.95
2023-02-18T05:41:22.412Z,3.30
2023-02-18T05:44:07.797Z,3.40
2023-02-18T05:46:35.005Z,3.45
2023-02-18T05:49:02.218Z,3.15
2023-02-18T05:51:29.586Z,2.72
2023-02-18T05:53:56.620Z,2.72
2023-02-18T05:56:23.682Z,3.58
2023-02-18T05:58:51.050Z,3.17
2023-02-18T06:01:18.057Z,3.13
2023-02-18T06:03:45.108Z,3.30
2023-02-18T06:06:12.373Z,3.03
2023-02-18T06:08:39.619Z,2.85
2023-02-18T06:11:06.764Z,3.70
2023-02-18T06:13:34.277Z,2.70
2023-02-18T06:16:01.375Z,3.05
2023-02-18T06:18:28.448Z,2.83
2023-02-18T06:20:55.836Z,2.95
2023-02-18T06:23:22.953Z,3.03
2023-02-18T06:25:50.713Z,2.72
2023-02-18T06:28:18.703Z,2.60
2023-02-18T06:30:47.158Z,2.50
2023-02-18T06:33:14.207Z,2.33
2023-02-18T06:35:59.431Z,2.13
2023-02-18T06:38:26.892Z,2.10
2023-02-18T06:40:54.534Z,2.33
2023-02-18T06:43:21.753Z,2.25
2023-02-18T06:45:48.900Z,2.85
2023-02-18T06:48:17.105Z,3.00
2023-02-18T06:50:44.583Z,2.97
2023-02-18T06:53:12.831Z,2.60
2023-02-18T06:55:39.897Z,2.83
2023-02-18T06:58:07.004Z,3.05
2023-02-18T07:00:34.125Z,3.50
2023-02-18T07:03:01.164Z,3.53
2023-02-18T07:05:28.825Z,2.95
2023-02-18T07:07:55.902Z,2.88
2023-02-18T07:10:22.949Z,2.47
2023-02-18T07:12:50.157Z,2.47
2023-02-18T07:15:17.325Z,2.90
2023-02-18T07:17:44.396Z,3.03
2023-02-18T07:20:11.938Z,2.40
2023-02-18T07:22:38.979Z,2.65
2023-02-18T07:25:06.321Z,2.50
2023-02-18T07:27:33.542Z,3.15
2023-02-18T07:30:00.679Z,2.58
2023-02-18T07:32:27.721Z,2.90
2023-02-18T07:34:58.217Z,2.95
2023-02-18T07:37:25.311Z,3.20
2023-02-18T07:39:52.326Z,3.35
2023-02-18T07:42:19.419Z,2.83
2023-02-18T07:44:46.556Z,2.50
2023-02-18T07:47:17.616Z,2.90
2023-02-18T07:49:44.944Z,2.60
2023-02-18T07:52:12.485Z,2.70
2023-02-18T07:54:39.695Z,2.72
2023-02-18T07:57:06.803Z,2.30
2023-02-18T07:59:33.895Z,2.70
2023-02-18T08:02:01.178Z,2.42
2023-02-18T08:04:28.293Z,2.50
2023-02-18T08:06:55.380Z,2.40
2023-02-18T08:09:22.621Z,2.85
2023-02-18T08:11:49.695Z,2.78
2023-02-18T08:14:16.799Z,2.33
2023-02-18T08:16:44.341Z,3.00
2023-02-18T08:19:11.497Z,2.80
2023-02-18T08:21:38.571Z,2.58
2023-02-18T08:24:05.918Z,2.78
2023-02-18T08:26:32.969Z,2.70
2023-02-18T08:29:00.111Z,2.70
2023-02-18T08:31:29.664Z,3.00
2023-02-18T08:33:59.180Z,2.83
2023-02-18T08:36:27.140Z,3.03
2023-02-18T08:38:54.732Z,3.13
2023-02-18T08:41:21.820Z,2.75
2023-02-18T08:43:49.597Z,2.97
2023-02-18T08:46:25.252Z,3.67
2023-02-18T08:49:00.282Z,4.00
2023-02-18T08:51:28.622Z,3.92
2023-02-18T08:53:55.734Z,4.50
2023-02-18T08:56:23.174Z,4.95
2023-02-18T08:58:50.231Z,6.72
2023-02-18T09:01:17.498Z,7.35
2023-02-18T09:03:44.732Z,5.95
2023-02-18T09:06:11.883Z,4.72
2023-02-18T09:08:39.155Z,3.75
2023-02-18T09:11:06.780Z,2.58
2023-02-18T09:13:34.488Z,2.53
2023-02-18T09:16:07.337Z,2.53
2023-02-18T09:18:36.571Z,3.13
2023-02-18T09:21:05.516Z,2.53
2023-02-18T09:23:34.412Z,2.53
2023-02-18T09:26:05.535Z,2.67
2023-02-18T09:28:32.769Z,2.20
2023-02-18T09:31:05.752Z,2.58
2023-02-18T09:33:36.460Z,3.03
2023-02-18T09:36:03.632Z,2.70
2023-02-18T09:38:30.788Z,2.42
2023-02-18T09:41:00.567Z,2.88
2023-02-18T09:43:30.680Z,3.00
2023-02-18T09:46:00.747Z,2.80
2023-02-18T09:48:33.352Z,3.17
2023-02-18T09:51:00.710Z,2.78
2023-02-18T09:53:28.159Z,2.97
2023-02-18T09:55:58.856Z,3.35
2023-02-18T09:58:30.567Z,3.38
2023-02-18T10:01:29.932Z,3.42
2023-02-18T10:04:05.091Z,3.45
2023-02-18T10:06:34.913Z,4.20
2023-02-18T10:09:20.996Z,3.47
2023-02-18T10:11:58.081Z,3.92
2023-02-18T10:14:27.114Z,3.70
2023-02-18T10:16:54.631Z,3.55
2023-02-18T10:19:33.970Z,4.35
2023-02-18T10:22:04.217Z,4.32
2023-02-18T10:24:40.577Z,4.63
2023-02-18T10:27:09.682Z,4.50
2023-02-18T10:29:36.965Z,4.25
2023-02-18T10:32:06.845Z,4.47
2023-02-18T10:34:52.389Z,5.10
2023-02-18T10:37:22.353Z,4.10
2023-02-18T10:40:04.257Z,5.18
2023-02-18T10:42:54.235Z,4.78
2023-02-18T10:45:43.852Z,5.25
2023-02-18T10:48:42.810Z,5.38
2023-02-18T10:51:21.239Z,4.53
2023-02-18T10:53:51.345Z,4.20
2023-02-18T10:56:30.622Z,4.45
2023-02-18T10:59:12.543Z,5.07
2023-02-18T11:01:41.170Z,4.07
2023-02-18T11:04:24.062Z,4.40
2023-02-18T11:06:55.314Z,4.70
2023-02-18T11:09:40.991Z,4.68
2023-02-18T11:12:17.974Z,5.50
2023-02-18T11:14:48.689Z,5.20
2023-02-18T11:17:32.451Z,4.93
2023-02-18T11:20:02.774Z,5.95
2023-02-18T11:22:40.263Z,6.63
2023-02-18T11:25:24.995Z,8.02
2023-02-18T11:27:57.170Z,6.03
2023-02-18T11:30:34.686Z,5.72
2023-02-18T11:33:07.066Z,6.28
2023-02-18T11:35:34.558Z,5.75
2023-02-18T11:38:04.899Z,5.93
2023-02-18T11:40:36.729Z,5.65
2023-02-18T11:43:07.969Z,6.32
2023-02-18T11:45:35.825Z,7.32
2023-02-18T11:48:14.912Z,6.90
2023-02-18T11:50:42.219Z,7.45
2023-02-18T11:53:31.499Z,5.50
2023-02-18T11:56:01.304Z,5.15
2023-02-18T11:58:44.696Z,6.18
2023-02-18T12:01:46.348Z,6.28
2023-02-18T12:04:19.908Z,5.82
2023-02-18T12:07:05.131Z,5.95
2023-02-18T12:10:07.844Z,5.10
2023-02-18T12:12:51.108Z,5.28
2023-02-18T12:15:27.114Z,5.50
2023-02-18T12:18:16.554Z,5.80
2023-02-18T12:20:49.080Z,6.32
2023-02-18T12:23:39.228Z,6.90
2023-02-18T12:26:29.715Z,6.43
2023-02-18T12:29:02.845Z,5.80
2023-02-18T12:31:32.686Z,5.80
2023-02-18T12:34:05.765Z,6.00
2023-02-18T12:36:53.313Z,5.93
2023-02-18T12:39:26.311Z,6.10
2023-02-18T12:42:14.894Z,5.67
2023-02-18T12:44:57.537Z,6.05
2023-02-18T12:47:31.708Z,6.53
2023-02-18T12:50:29.196Z,6.47
2023-02-18T12:53:14.702Z,5.28
2023-02-18T12:56:02.089Z,5.82
2023-02-18T12:58:44.371Z,5.68
2023-02-18T13:01:20.572Z,5.93
2023-02-18T13:04:29.817Z,5.78
2023-02-18T13:07:23.802Z,6.05
2023-02-18T13:10:28.933Z,5.78
2023-02-18T13:13:01.717Z,6.15
2023-02-18T13:15:34.754Z,8.07
2023-02-18T13:18:06.090Z,6.32
2023-02-18T13:20:41.088Z,6.00
2023-02-18T13:23:21.736Z,5.32
2023-02-18T13:25:58.424Z,5.75
2023-02-18T13:28:44.423Z,5.88
2023-02-18T13:31:36.246Z,6.40
2023-02-18T13:34:22.297Z,6.72
2023-02-18T13:37:17.252Z,6.00
2023-02-18T13:39:58.518Z,7.22
2023-02-18T13:42:26.001Z,5.50
2023-02-18T13:44:55.749Z,5.93
2023-02-18T13:47:49.851Z,6.32
2023-02-18T13:50:27.017Z,6.13
2023-02-18T13:53:08.974Z,6.60
2023-02-18T13:55:56.431Z,5.80
2023-02-18T13:58:30.630Z,5.82
2023-02-18T14:01:19.983Z,6.47
2023-02-18T14:03:47.455Z,5.80
2023-02-18T14:06:21.136Z,5.63
2023-02-18T14:08:49.748Z,5.53
2023-02-18T14:11:16.725Z,4.55
2023-02-18T14:13:50.223Z,4.95
2023-02-18T14:16:17.267Z,4.57
2023-02-18T14:18:44.239Z,4.43
2023-02-18T14:21:14.436Z,3.90
2023-02-18T14:23:42.638Z,3.45
2023-02-18T14:26:15.773Z,4.15
2023-02-18T14:28:55.033Z,3.88
2023-02-18T14:31:34.571Z,4.32
2023-02-18T14:34:04.671Z,3.33
2023-02-18T14:36:47.034Z,3.55
2023-02-18T14:39:39.293Z,3.95
2023-02-18T14:42:24.891Z,4.03
2023-02-18T14:45:19.180Z,5.03
2023-02-18T14:48:14.389Z,3.40
2023-02-18T14:50:48.166Z,4.32
2023-02-18T14:53:20.782Z,3.88
2023-02-18T14:55:55.393Z,3.83
2023-02-18T14:58:50.957Z,3.22
2023-02-18T15:01:25.827Z,3.38
2023-02-18T15:03:54.910Z,3.20
2023-02-18T15:06:29.808Z,2.88
2023-02-18T15:08:57.972Z,2.78
2023-02-18T15:11:50.711Z,2.55
2023-02-18T15:14:22.257Z,3.00
2023-02-18T15:16:50.115Z,3.40
2023-02-18T15:19:23.313Z,2.83
2023-02-18T15:21:51.867Z,3.15
2023-02-18T15:24:32.440Z,2.92
2023-02-18T15:27:03.545Z,2.95
2023-02-18T15:29:37.199Z,2.88
2023-02-18T15:32:17.359Z,3.28
2023-02-18T15:34:45.388Z,3.65
2023-02-18T15:37:15.206Z,2.78
2023-02-18T15:39:43.668Z,2.80
2023-02-18T15:42:33.776Z,2.97
2023-02-18T15:45:23.765Z,3.33
2023-02-18T15:47:54.247Z,2.92
2023-02-18T15:50:28.745Z,3.03
2023-02-18T15:53:00.264Z,2.35
2023-02-18T15:55:32.161Z,2.65
2023-02-18T15:58:09.885Z,2.65
2023-02-18T16:00:51.651Z,2.35
2023-02-18T16:03:34.887Z,2.47
2023-02-18T16:06:35.589Z,2.20
2023-02-18T16:09:12.908Z,2.63
2023-02-18T16:11:44.527Z,2.55
2023-02-18T16:14:57.405Z,2.13
2023-02-18T16:17:26.902Z,2.97
2023-02-18T16:20:04.265Z,2.38
2023-02-18T16:22:31.727Z,3.10
2023-02-18T16:25:18.744Z,2.47
2023-02-18T16:27:53.769Z,2.83
2023-02-18T16:30:29.970Z,2.80
2023-02-18T16:32:58.271Z,2.78
2023-02-18T16:35:30.678Z,2.95
2023-02-18T16:38:00.500Z,2.60
2023-02-18T16:40:40.763Z,2.78
2023-02-18T16:43:12.655Z,2.72
2023-02-18T16:45:47.052Z,3.58
2023-02-18T16:48:42.308Z,3.42
2023-02-18T16:51:24.975Z,3.05
2023-02-18T16:53:52.468Z,3.17
2023-02-18T16:56:25.187Z,2.83
2023-02-18T16:58:52.821Z,2.63
2023-02-18T17:01:44.407Z,2.40
2023-02-18T17:04:17.693Z,2.88
2023-02-18T17:06:48.847Z,3.03
2023-02-18T17:09:22.319Z,2.63
2023-02-18T17:11:54.808Z,2.83
2023-02-18T17:14:23.424Z,2.70
2023-02-18T17:16:53.935Z,2.67
2023-02-18T17:19:21.738Z,3.28
2023-02-18T17:21:49.179Z,2.55
2023-02-18T17:24:18.593Z,2.72
2023-02-18T17:26:45.878Z,2.95
2023-02-18T17:29:14.104Z,2.83
2023-02-18T17:31:47.941Z,3.53
2023-02-18T17:34:22.806Z,2.85
2023-02-18T17:36:49.825Z,3.17
2023-02-18T17:39:18.021Z,2.88
2023-02-18T17:41:45.963Z,3.00
2023-02-18T17:44:18.175Z,3.35
2023-02-18T17:46:45.609Z,2.70
2023-02-18T17:49:13.227Z,2.38
2023-02-18T17:51:40.296Z,2.70
2023-02-18T17:54:18.638Z,2.47
2023-02-18T17:56:46.544Z,2.65
2023-02-18T17:59:14.136Z,2.55
2023-02-18T18:01:42.752Z,2.80
2023-02-18T18:04:18.555Z,2.40
2023-02-18T18:06:47.111Z,2.13
2023-02-18T18:09:14.362Z,2.40
2023-02-18T18:11:41.705Z,2.15
2023-02-18T18:14:13.489Z,2.47
2023-02-18T18:16:40.606Z,2.28
2023-02-18T18:19:07.912Z,2.22
2023-02-18T18:21:36.546Z,2.58
2023-02-18T18:24:04.010Z,3.55
2023-02-18T18:26:31.377Z,2.50
2023-02-18T18:28:58.452Z,2.65
2023-02-18T18:31:25.757Z,2.15
2023-02-18T18:33:53.891Z,2.30
2023-02-18T18:36:24.431Z,3.08
2023-02-18T18:38:51.908Z,3.10
2023-02-18T18:41:21.977Z,2.15
2023-02-18T18:43:50.042Z,2.67
2023-02-18T18:46:17.866Z,2.75
2023-02-18T18:48:45.157Z,2.47
2023-02-18T18:51:25.265Z,2.28
2023-02-18T18:53:52.379Z,3.00
2023-02-18T18:56:19.513Z,4.05
2023-02-18T18:58:46.747Z,3.40
2023-02-18T19:01:19.395Z,3.30
2023-02-18T19:03:47.495Z,2.72
2023-02-18T19:06:16.903Z,2.45
2023-02-18T19:08:48.068Z,3.65
2023-02-18T19:11:15.837Z,2.85
2023-02-18T19:13:43.017Z,3.85
2023-02-18T19:16:30.208Z,2.70
2023-02-18T19:18:57.263Z,3.25
2023-02-18T19:21:24.299Z,2.65
2023-02-18T19:23:51.512Z,3.13
2023-02-18T19:26:18.660Z,4.00
2023-02-18T19:28:46.516Z,3.50
2023-02-18T19:31:14.172Z,3.60
2023-02-18T19:33:41.697Z,3.10
2023-02-18T19:36:11.217Z,3.60
2023-02-18T19:38:39.532Z,4.20
2023-02-18T19:41:12.652Z,4.88
2023-02-18T19:43:44.231Z,3.53
2023-02-18T19:46:14.249Z,2.33
2023-02-18T19:48:42.100Z,2.97
2023-02-18T19:51:10.162Z,2.53
2023-02-18T19:53:37.544Z,2.15
2023-02-18T19:56:07.603Z,3.40
2023-02-18T19:58:35.746Z,3.97
2023-02-18T20:01:03.785Z,3.60
2023-02-18T20:03:31.043Z,2.55
2023-02-18T20:05:58.246Z,3.20
2023-02-18T20:08:25.290Z,2.30
2023-02-18T20:10:59.351Z,2.30
2023-02-18T20:13:27.074Z,2.03
2023-02-18T20:15:54.278Z,2.40
2023-02-18T20:18:21.331Z,2.25
2023-02-18T20:20:50.283Z,2.40
2023-02-18T20:23:17.736Z,1.80
2023-02-18T20:25:47.874Z,2.40
2023-02-18T20:28:15.381Z,1.83
2023-02-18T20:30:42.698Z,3.03
2023-02-18T20:33:09.725Z,2.47
2023-02-18T20:35:36.956Z,3.17
2023-02-18T20:38:04.263Z,2.70
2023-02-18T20:40:31.338Z,2.28
2023-02-18T20:42:58.447Z,2.80
2023-02-18T20:45:25.553Z,2.33
2023-02-18T20:47:52.583Z,2.40
2023-02-18T20:50:22.254Z,2.42
2023-02-18T20:52:49.314Z,2.10
2023-02-18T20:55:16.530Z,1.98
2023-02-18T20:57:44.374Z,2.10
2023-02-18T21:00:12.120Z,1.77
2023-02-18T21:02:39.305Z,2.08
2023-02-18T21:05:06.914Z,1.40
2023-02-18T21:07:34.064Z,1.52
2023-02-18T21:10:01.117Z,1.75
2023-02-18T21:12:28.262Z,2.35
2023-02-18T21:14:55.335Z,1.90
2023-02-18T21:17:23.165Z,2.08
2023-02-18T21:19:50.211Z,2.50
2023-02-18T21:22:17.248Z,2.33
2023-02-18T21:24:44.526Z,2.10
2023-02-18T21:27:11.568Z,2.13
2023-02-18T21:29:38.699Z,2.33
2023-02-18T21:32:06.629Z,2.55
2023-02-18T21:34:33.737Z,2.30
2023-02-18T21:37:00.755Z,2.28
2023-02-18T21:39:28.461Z,2.10
2023-02-18T21:41:57.404Z,1.90
2023-02-18T21:44:32.814Z,2.03
2023-02-18T21:47:04.380Z,2.47
2023-02-18T21:49:31.666Z,2.67
2023-02-18T21:52:08.691Z,2.30
2023-02-18T21:54:41.249Z,2.95
2023-02-18T21:57:12.300Z,2.22
2023-02-18T21:59:40.377Z,2.45
2023-02-18T22:02:14.866Z,2.42
2023-02-18T22:04:41.976Z,2.67
2023-02-18T22:07:09.188Z,2.25
2023-02-18T22:09:37.186Z,2.38
2023-02-18T22:12:05.063Z,1.95
2023-02-18T22:14:32.149Z,2.45
2023-02-18T22:16:59.541Z,2.15
2023-02-18T22:19:26.711Z,2.22
2023-02-18T22:21:54.088Z,1.65
2023-02-18T22:24:21.184Z,1.75
2023-02-18T22:26:49.261Z,1.90
2023-02-18T22:29:20.280Z,2.17
2023-02-18T22:31:48.139Z,1.90
2023-02-18T22:34:16.333Z,2.33
2023-02-18T22:36:43.651Z,1.73
2023-02-18T22:39:11.888Z,1.92
2023-02-18T22:41:39.020Z,1.75
2023-02-18T22:44:08.842Z,1.85
2023-02-18T22:46:37.312Z,1.65
2023-02-18T22:49:06.574Z,2.10
2023-02-18T22:51:41.530Z,2.58
2023-02-18T22:54:12.287Z,2.03
2023-02-18T22:56:39.587Z,1.90
2023-02-18T22:59:06.762Z,1.90
2023-02-18T23:01:40.271Z,2.30
2023-02-18T23:04:13.284Z,1.92
2023-02-18T23:06:43.039Z,1.75
2023-02-18T23:09:14.737Z,1.77
2023-02-18T23:11:42.131Z,1.90
2023-02-18T23:14:18.788Z,1.80
2023-02-18T23:17:13.143Z,1.95
2023-02-18T23:19:51.598Z,2.22
2023-02-18T23:22:25.002Z,1.90
2023-02-18T23:24:52.081Z,2.10
2023-02-18T23:27:19.390Z,2.28
2023-02-18T23:29:46.681Z,2.25
2023-02-18T23:32:13.818Z,1.88
2023-02-18T23:34:40.958Z,2.45
2023-02-18T23:37:08.168Z,1.80
2023-02-18T23:39:35.381Z,2.10
2023-02-18T23:42:02.531Z,2.15
2023-02-18T23:44:29.817Z,2.05
2023-02-18T23:46:56.962Z,1.85
2023-02-18T23:49:26.096Z,2.47
2023-02-18T23:51:55.577Z,2.22
2023-02-18T23:54:23.337Z,2.25
2023-02-18T23:56:50.450Z,2.67
2023-02-18T23:59:17.938Z,2.17
